createdAt,value
2023-03-15T00:01:49.762Z,71.70
2023-03-15T00:04:16.329Z,72.58
2023-03-15T00:06:42.835Z,70.82
2023-03-15T00:09:09.487Z,70.00
2023-03-15T00:11:36.012Z,72.03
2023-03-15T00:14:02.643Z,70.96
2023-03-15T00:16:29.545Z,72.13
2023-03-15T00:18:56.490Z,73.67
2023-03-15T00:21:24.004Z,73.84
2023-03-15T00:23:51.029Z,73.88
2023-03-15T00:26:17.833Z,73.70
2023-03-15T00:28:44.880Z,72.45
2023-03-15T00:31:20.488Z,73.14
2023-03-15T00:33:48.130Z,74.04
2023-03-15T00:36:15.414Z,73.93
2023-03-15T00:38:44.141Z,73.04
2023-03-15T00:41:15.885Z,72.21
2023-03-15T00:43:43.552Z,74.60
2023-03-15T00:46:10.725Z,74.73
2023-03-15T00:48:37.933Z,76.06
2023-03-15T00:51:06.983Z,75.97
2023-03-15T00:53:35.211Z,76.43
2023-03-15T00:56:22.413Z,76.01
2023-03-15T00:58:49.493Z,76.29
2023-03-15T01:01:28.838Z,76.07
2023-03-15T01:03:55.650Z,77.02
2023-03-15T01:06:25.203Z,76.37
2023-03-15T01:08:52.612Z,76.13
2023-03-15T01:11:24.281Z,76.45
2023-03-15T01:13:53.511Z,75.26
2023-03-15T01:16:20.711Z,74.85
2023-03-15T01:18:47.955Z,74.65
2023-03-15T01:21:15.919Z,75.37
2023-03-15T01:23:42.530Z,75.24
2023-03-15T01:26:12.530Z,74.64
2023-03-15T01:28:39.387Z,74.29
2023-03-15T01:31:06.066Z,74.08
2023-03-15T01:33:32.626Z,74.10
2023-03-15T01:36:04.760Z,74.80
2023-03-15T01:38:31.787Z,74.97
2023-03-15T01:40:58.704Z,74.33
2023-03-15T01:43:27.603Z,74.02
2023-03-15T01:46:23.717Z,75.83
2023-03-15T01:48:56.838Z,74.21
2023-03-15T01:51:34.563Z,74.66
2023-03-15T01:54:15.860Z,75.37
2023-03-15T01:56:48.015Z,74.45
2023-03-15T01:59:20.281Z,75.31
2023-03-15T02:01:48.228Z,75.58
2023-03-15T02:04:24.994Z,76.03
2023-03-15T02:06:59.152Z,75.57
2023-03-15T02:09:44.716Z,77.04
2023-03-15T02:12:11.941Z,76.91
2023-03-15T02:14:39.499Z,76.23
2023-03-15T02:17:06.237Z,77.09
2023-03-15T02:20:05.710Z,76.16
2023-03-15T02:23:09.451Z,76.32
2023-03-15T02:26:00.962Z,75.50
2023-03-15T02:28:28.352Z,76.14
2023-03-15T02:30:55.280Z,76.90
2023-03-15T02:33:35.389Z,77.02
2023-03-15T02:36:28.618Z,78.06
2023-03-15T02:38:56.239Z,79.95
2023-03-15T02:41:28.782Z,80.01
2023-03-15T02:44:02.066Z,81.14
2023-03-15T02:46:29.435Z,80.55
2023-03-15T02:48:56.547Z,79.33
2023-03-15T02:51:24.899Z,80.46
2023-03-15T02:53:51.494Z,80.71
2023-03-15T02:56:18.049Z,79.56
2023-03-15T02:58:47.996Z,79.85
2023-03-15T03:01:16.446Z,80.66
2023-03-15T03:03:44.698Z,81.24
2023-03-15T03:06:13.078Z,80.21
2023-03-15T03:08:39.891Z,81.63
2023-03-15T03:11:06.914Z,79.21
2023-03-15T03:13:33.480Z,83.33
2023-03-15T03:16:00.017Z,81.19
2023-03-15T03:18:27.941Z,79.41
2023-03-15T03:20:59.248Z,81.26
2023-03-15T03:23:26.393Z,83.06
2023-03-15T03:25:54.193Z,82.75
2023-03-15T03:28:24.148Z,84.97
2023-03-15T03:30:52.379Z,84.57
2023-03-15T03:33:19.462Z,84.72
2023-03-15T03:35:45.986Z,85.18
2023-03-15T03:38:12.541Z,82.71
2023-03-15T03:40:39.686Z,82.52
2023-03-15T03:43:07.803Z,81.10
2023-03-15T03:45:34.845Z,82.18
2023-03-15T03:48:01.416Z,82.76
2023-03-15T03:50:28.088Z,84.27
2023-03-15T03:52:54.646Z,82.58
2023-03-15T03:55:25.182Z,82.75
2023-03-15T03:57:53.034Z,82.60
2023-03-15T04:00:20.356Z,82.54
2023-03-15T04:02:47.185Z,83.03
2023-03-15T04:05:13.926Z,82.19
2023-03-15T04:07:41.415Z,82.18
2023-03-15T04:10:08.694Z,82.01
2023-03-15T04:12:35.294Z,82.23
2023-03-15T04:15:01.856Z,81.60
2023-03-15T04:17:28.412Z,81.63
2023-03-15T04:19:55.001Z,81.94
2023-03-15T04:22:21.559Z,80.06
2023-03-15T04:24:50.657Z,80.78
2023-03-15T04:27:17.186Z,81.11
2023-03-15T04:29:44.007Z,80.96
2023-03-15T04:32:11.141Z,80.95
2023-03-15T04:34:38.930Z,80.21
2023-03-15T04:37:06.082Z,80.06
2023-03-15T04:39:32.587Z,80.27
2023-03-15T04:41:59.084Z,80.48
2023-03-15T04:44:26.695Z,79.48
2023-03-15T04:46:56.715Z,78.89
2023-03-15T04:49:23.273Z,80.11
2023-03-15T04:51:49.826Z,79.69
2023-03-15T04:54:16.465Z,78.75
2023-03-15T04:56:42.967Z,78.61
2023-03-15T04:59:11.153Z,80.26
2023-03-15T05:01:38.364Z,77.07
2023-03-15T05:04:05.067Z,78.24
2023-03-15T05:06:31.600Z,77.92
2023-03-15T05:08:58.178Z,77.63
2023-03-15T05:11:24.936Z,77.20
2023-03-15T05:13:51.768Z,76.80
2023-03-15T05:16:18.365Z,75.33
2023-03-15T05:18:45.424Z,76.51
2023-03-15T05:21:13.174Z,77.22
2023-03-15T05:23:40.303Z,77.99
2023-03-15T05:26:06.911Z,76.45
2023-03-15T05:28:33.464Z,76.79
2023-03-15T05:31:00.745Z,76.59
2023-03-15T05:33:27.424Z,76.46
2023-03-15T05:35:56.350Z,76.18
2023-03-15T05:38:26.641Z,76.70
2023-03-15T05:40:54.574Z,76.50
2023-03-15T05:43:21.891Z,76.55
2023-03-15T05:45:48.868Z,76.74
2023-03-15T05:48:16.731Z,77.14
2023-03-15T05:50:43.414Z,75.76
2023-03-15T05:53:10.585Z,76.95
2023-03-15T05:55:37.575Z,76.21
2023-03-15T05:58:04.873Z,75.41
2023-03-15T06:00:31.505Z,77.02
2023-03-15T06:02:58.190Z,77.77
2023-03-15T06:05:25.183Z,77.18
2023-03-15T06:07:51.718Z,77.39
2023-03-15T06:10:18.320Z,75.70
2023-03-15T06:12:44.925Z,76.08
2023-03-15T06:15:11.975Z,76.74
2023-03-15T06:17:38.700Z,75.85
2023-03-15T06:20:05.758Z,76.09
2023-03-15T06:22:33.136Z,75.58
2023-03-15T06:24:59.798Z,74.52
2023-03-15T06:27:26.312Z,75.83
2023-03-15T06:29:53.946Z,75.76
2023-03-15T06:32:20.595Z,75.86
2023-03-15T06:34:47.112Z,76.10
2023-03-15T06:37:16.327Z,75.43
2023-03-15T06:39:46.885Z,74.98
2023-03-15T06:42:13.812Z,75.14
2023-03-15T06:44:41.447Z,74.89
2023-03-15T06:47:09.128Z,74.65
2023-03-15T06:49:35.840Z,74.33
2023-03-15T06:52:03.998Z,73.42
2023-03-15T06:54:31.259Z,74.35
2023-03-15T06:56:58.104Z,73.47
2023-03-15T06:59:24.749Z,72.80
2023-03-15T07:01:51.660Z,73.00
2023-03-15T07:04:18.237Z,73.17
2023-03-15T07:06:44.773Z,72.89
2023-03-15T07:09:11.304Z,73.00
2023-03-15T07:11:37.856Z,74.08
2023-03-15T07:14:04.449Z,72.84
2023-03-15T07:16:31.077Z,71.00
2023-03-15T07:18:59.918Z,71.23
2023-03-15T07:21:27.424Z,70.51
2023-03-15T07:23:54.790Z,69.37
2023-03-15T07:26:21.584Z,69.51
2023-03-15T07:28:48.128Z,68.40
2023-03-15T07:31:14.926Z,67.66
2023-03-15T07:33:41.560Z,65.74
2023-03-15T07:36:08.754Z,66.78
2023-03-15T07:38:36.356Z,67.80
2023-03-15T07:41:04.861Z,67.99
2023-03-15T07:43:31.814Z,68.69
2023-03-15T07:45:58.398Z,66.80
2023-03-15T07:48:25.033Z,67.39
2023-03-15T07:50:51.783Z,66.22
2023-03-15T07:53:18.447Z,65.52
2023-03-15T07:55:47.376Z,67.17
2023-03-15T07:58:14.496Z,64.94
2023-03-15T08:00:41.575Z,64.67
2023-03-15T08:03:08.293Z,65.78
2023-03-15T08:05:35.942Z,64.84
2023-03-15T08:08:02.913Z,66.01
2023-03-15T08:10:29.540Z,63.54
2023-03-15T08:12:56.166Z,64.24
2023-03-15T08:15:22.822Z,62.37
2023-03-15T08:17:49.554Z,61.48
2023-03-15T08:20:20.305Z,61.27
2023-03-15T08:22:51.389Z,62.71
2023-03-15T08:25:21.100Z,60.88
2023-03-15T08:27:48.342Z,60.35
2023-03-15T08:30:16.519Z,60.67
2023-03-15T08:32:45.479Z,59.33
2023-03-15T08:35:15.880Z,59.46
2023-03-15T08:37:47.734Z,58.53
2023-03-15T08:40:23.839Z,60.23
2023-03-15T08:42:50.418Z,59.23
2023-03-15T08:45:17.236Z,60.21
2023-03-15T08:47:43.813Z,62.69
2023-03-15T08:50:15.738Z,65.28
2023-03-15T08:52:42.921Z,68.65
2023-03-15T08:55:10.923Z,69.67
2023-03-15T08:57:37.425Z,72.07
2023-03-15T09:00:09.381Z,74.61
2023-03-15T09:02:36.941Z,76.16
2023-03-15T09:05:07.010Z,78.08
2023-03-15T09:07:34.168Z,79.53
2023-03-15T09:10:02.353Z,78.96
2023-03-15T09:12:30.339Z,80.98
2023-03-15T09:14:56.881Z,81.57
2023-03-15T09:17:25.917Z,80.16
2023-03-15T09:19:52.594Z,78.87
2023-03-15T09:22:37.928Z,79.28
2023-03-15T09:25:05.831Z,78.90
2023-03-15T09:27:32.681Z,77.98
2023-03-15T09:29:59.720Z,76.95
2023-03-15T09:32:26.908Z,76.27
2023-03-15T09:34:53.597Z,74.71
2023-03-15T09:37:21.897Z,75.33
2023-03-15T09:39:48.460Z,73.25
2023-03-15T09:42:44.754Z,72.94
2023-03-15T09:45:48.204Z,68.95
2023-03-15T09:48:20.163Z,70.40
2023-03-15T09:50:51.629Z,70.30
2023-03-15T09:53:44.860Z,68.77
2023-03-15T09:56:34.039Z,69.16
2023-03-15T09:59:02.209Z,69.59
2023-03-15T10:01:38.715Z,70.29
2023-03-15T10:04:14.114Z,68.20
2023-03-15T10:06:46.166Z,66.49
2023-03-15T10:09:18.016Z,68.34
2023-03-15T10:12:02.831Z,68.58
2023-03-15T10:14:47.547Z,67.79
2023-03-15T10:18:03.459Z,69.29
2023-03-15T10:20:34.667Z,69.70
2023-03-15T10:23:13.127Z,69.91
2023-03-15T10:25:41.111Z,69.95
2023-03-15T10:28:33.910Z,70.36
2023-03-15T10:31:18.229Z,71.07
2023-03-15T10:33:56.915Z,70.98
2023-03-15T10:36:25.336Z,71.19
2023-03-15T10:38:52.192Z,69.99
2023-03-15T10:41:41.713Z,70.31
2023-03-15T10:44:15.116Z,67.80
2023-03-15T10:46:42.045Z,68.16
2023-03-15T10:49:15.025Z,67.80
2023-03-15T10:51:44.479Z,69.12
2023-03-15T10:54:18.869Z,67.88
2023-03-15T10:57:05.656Z,66.58
2023-03-15T10:59:35.154Z,67.72
2023-03-15T11:02:16.737Z,67.23
2023-03-15T11:04:49.722Z,65.79
2023-03-15T11:07:16.274Z,65.81
2023-03-15T11:09:45.733Z,63.78
2023-03-15T11:12:30.447Z,63.77
2023-03-15T11:15:05.258Z,64.70
2023-03-15T11:17:35.540Z,64.67
2023-03-15T11:20:23.287Z,65.35
2023-03-15T11:22:52.151Z,65.85
2023-03-15T11:25:18.676Z,66.04
2023-03-15T11:27:51.895Z,66.10
2023-03-15T11:30:21.951Z,64.68
2023-03-15T11:32:49.578Z,64.72
2023-03-15T11:35:24.336Z,64.83
2023-03-15T11:38:23.254Z,64.95
2023-03-15T11:40:56.192Z,66.01
2023-03-15T11:43:49.413Z,66.63
2023-03-15T11:46:42.727Z,65.61
2023-03-15T11:49:17.986Z,64.94
2023-03-15T11:51:45.210Z,66.11
2023-03-15T11:54:15.539Z,65.39
2023-03-15T11:56:44.890Z,65.94
2023-03-15T11:59:15.443Z,63.81
2023-03-15T12:01:59.045Z,64.17
2023-03-15T12:04:25.575Z,61.88
2023-03-15T12:06:54.684Z,61.37
2023-03-15T12:09:33.272Z,62.90
2023-03-15T12:12:02.762Z,62.93
2023-03-15T12:14:36.819Z,60.72
2023-03-15T12:17:29.318Z,61.96
2023-03-15T12:19:59.208Z,62.79
2023-03-15T12:22:33.219Z,61.80
2023-03-15T12:25:13.227Z,62.29
2023-03-15T12:27:48.177Z,64.31
2023-03-15T12:30:30.164Z,63.55
2023-03-15T12:32:57.588Z,63.03
2023-03-15T12:35:31.937Z,61.35
2023-03-15T12:38:01.629Z,63.24
2023-03-15T12:40:28.077Z,65.30
2023-03-15T12:42:54.606Z,64.89
2023-03-15T12:45:21.120Z,64.63
2023-03-15T12:47:50.773Z,64.23
2023-03-15T12:50:35.966Z,64.09
2023-03-15T12:53:05.431Z,63.52
2023-03-15T12:55:34.244Z,63.65
2023-03-15T12:58:03.001Z,67.58
2023-03-15T13:00:32.848Z,64.67
2023-03-15T13:03:06.580Z,65.09
2023-03-15T13:06:04.565Z,62.00
2023-03-15T13:08:43.473Z,64.37
2023-03-15T13:11:54.164Z,61.93
2023-03-15T13:14:30.947Z,65.82
2023-03-15T13:17:06.470Z,65.76
2023-03-15T13:19:45.680Z,64.08
2023-03-15T13:22:29.521Z,61.72
2023-03-15T13:25:09.773Z,63.07
2023-03-15T13:27:56.228Z,62.59
2023-03-15T13:30:33.690Z,59.17
2023-03-15T13:33:18.777Z,61.09
2023-03-15T13:35:55.711Z,59.85
2023-03-15T13:38:29.522Z,58.35
2023-03-15T13:40:57.269Z,59.79
2023-03-15T13:43:30.560Z,62.98
2023-03-15T13:45:58.773Z,61.02
2023-03-15T13:48:41.146Z,59.58
2023-03-15T13:51:27.704Z,60.48
2023-03-15T13:53:57.100Z,60.03
2023-03-15T13:56:46.923Z,56.90
2023-03-15T13:59:15.978Z,57.15
2023-03-15T14:01:43.137Z,54.17
2023-03-15T14:04:16.155Z,56.14
2023-03-15T14:06:45.656Z,57.71
2023-03-15T14:09:21.944Z,58.06
2023-03-15T14:12:03.968Z,59.23
2023-03-15T14:14:32.241Z,60.72
2023-03-15T14:17:05.780Z,60.31
2023-03-15T14:19:34.772Z,59.46
2023-03-15T14:22:05.058Z,60.52
2023-03-15T14:24:41.110Z,60.04
2023-03-15T14:27:14.877Z,60.37
2023-03-15T14:29:48.687Z,59.67
2023-03-15T14:32:27.870Z,59.91
2023-03-15T14:35:23.086Z,60.06
2023-03-15T14:38:01.485Z,56.81
2023-03-15T14:40:36.889Z,51.46
2023-03-15T14:43:05.745Z,52.86
2023-03-15T14:45:34.480Z,53.78
2023-03-15T14:48:08.365Z,56.12
2023-03-15T14:50:41.765Z,54.08
2023-03-15T14:53:13.033Z,54.24
2023-03-15T14:55:39.617Z,53.73
2023-03-15T14:58:14.722Z,54.58
2023-03-15T15:00:42.977Z,55.55
2023-03-15T15:03:26.004Z,53.90
2023-03-15T15:05:52.653Z,56.55
2023-03-15T15:08:24.557Z,54.63
2023-03-15T15:10:53.537Z,55.47
2023-03-15T15:13:26.568Z,55.68
2023-03-15T15:15:56.590Z,54.69
2023-03-15T15:18:29.673Z,55.59
2023-03-15T15:20:58.578Z,55.37
2023-03-15T15:23:29.060Z,56.39
2023-03-15T15:26:04.018Z,56.58
2023-03-15T15:28:36.454Z,57.20
2023-03-15T15:31:05.419Z,57.26
2023-03-15T15:33:31.958Z,56.80
2023-03-15T15:35:58.643Z,57.80
2023-03-15T15:38:34.652Z,56.51
2023-03-15T15:41:01.347Z,56.37
2023-03-15T15:43:27.925Z,56.53
2023-03-15T15:45:54.494Z,56.18
2023-03-15T15:48:21.219Z,54.23
2023-03-15T15:50:47.765Z,54.72
2023-03-15T15:53:18.118Z,55.48
2023-03-15T15:55:45.908Z,53.21
2023-03-15T15:58:13.817Z,53.56
2023-03-15T16:00:40.479Z,53.79
2023-03-15T16:03:16.169Z,56.06
2023-03-15T16:05:43.325Z,57.38
2023-03-15T16:08:23.277Z,57.64
2023-03-15T16:10:50.256Z,57.87
2023-03-15T16:13:17.542Z,58.75
2023-03-15T16:15:44.285Z,58.87
2023-03-15T16:18:12.174Z,59.50
2023-03-15T16:20:40.520Z,59.20
2023-03-15T16:23:11.632Z,58.12
2023-03-15T16:25:38.304Z,57.45
2023-03-15T16:28:07.753Z,57.15
2023-03-15T16:30:34.998Z,57.76
2023-03-15T16:33:01.630Z,57.18
2023-03-15T16:35:34.971Z,56.77
2023-03-15T16:38:05.117Z,57.60
2023-03-15T16:40:40.624Z,58.85
2023-03-15T16:43:08.701Z,60.23
2023-03-15T16:45:35.910Z,60.49
2023-03-15T16:48:03.782Z,60.26
2023-03-15T16:50:31.536Z,59.52
2023-03-15T16:53:01.181Z,59.34
2023-03-15T16:55:29.384Z,60.74
2023-03-15T16:57:57.056Z,61.50
2023-03-15T17:00:24.611Z,60.84
2023-03-15T17:02:52.234Z,60.54
2023-03-15T17:05:20.948Z,61.52
2023-03-15T17:07:49.572Z,64.26
2023-03-15T17:10:21.406Z,62.14
2023-03-15T17:12:48.252Z,62.54
2023-03-15T17:15:15.066Z,63.54
2023-03-15T17:17:41.661Z,64.80
2023-03-15T17:20:15.020Z,63.92
2023-03-15T17:22:42.326Z,63.94
2023-03-15T17:25:09.462Z,63.89
2023-03-15T17:27:43.869Z,63.97
2023-03-15T17:30:35.212Z,64.24
2023-03-15T17:33:02.719Z,63.40
2023-03-15T17:35:36.031Z,63.51
2023-03-15T17:38:04.464Z,64.40
2023-03-15T17:40:33.859Z,63.31
2023-03-15T17:43:02.932Z,63.39
2023-03-15T17:45:32.927Z,62.95
2023-03-15T17:48:01.218Z,63.46
2023-03-15T17:50:30.571Z,63.67
2023-03-15T17:53:02.258Z,62.85
2023-03-15T17:55:31.415Z,63.91
2023-03-15T17:57:57.938Z,63.86
2023-03-15T18:00:25.096Z,64.86
2023-03-15T18:02:56.543Z,65.18
2023-03-15T18:05:29.191Z,65.16
2023-03-15T18:07:59.567Z,65.82
2023-03-15T18:10:31.615Z,65.81
2023-03-15T18:12:58.230Z,65.87
2023-03-15T18:15:24.769Z,67.43
2023-03-15T18:17:51.364Z,67.97
2023-03-15T18:20:19.144Z,68.55
2023-03-15T18:22:45.703Z,68.47
2023-03-15T18:25:26.797Z,68.93
2023-03-15T18:27:53.576Z,69.33
2023-03-15T18:30:23.371Z,69.36
2023-03-15T18:32:51.106Z,70.11
2023-03-15T18:35:36.994Z,70.13
2023-03-15T18:38:04.885Z,70.02
2023-03-15T18:40:32.874Z,71.14
2023-03-15T18:43:00.317Z,70.88
2023-03-15T18:45:29.810Z,70.53
2023-03-15T18:47:56.805Z,73.47
2023-03-15T18:50:23.380Z,74.13
2023-03-15T18:52:49.957Z,73.35
2023-03-15T18:55:18.302Z,72.84
2023-03-15T18:57:46.248Z,72.99
2023-03-15T19:00:16.215Z,73.58
2023-03-15T19:02:45.269Z,74.09
2023-03-15T19:05:13.713Z,75.05
2023-03-15T19:07:40.742Z,75.33
2023-03-15T19:10:11.239Z,75.11
2023-03-15T19:12:37.850Z,75.97
2023-03-15T19:15:05.755Z,76.42
2023-03-15T19:17:32.519Z,75.95
2023-03-15T19:19:59.100Z,76.19
2023-03-15T19:22:26.510Z,75.83
2023-03-15T19:24:53.063Z,76.67
2023-03-15T19:27:19.875Z,76.89
2023-03-15T19:29:46.688Z,77.45
2023-03-15T19:32:13.332Z,78.12
2023-03-15T19:34:39.922Z,77.74
2023-03-15T19:37:06.603Z,78.31
2023-03-15T19:39:33.181Z,78.49
2023-03-15T19:41:59.766Z,77.02
2023-03-15T19:44:27.279Z,77.54
2023-03-15T19:46:53.900Z,78.34
2023-03-15T19:49:20.744Z,77.69
2023-03-15T19:51:47.307Z,78.05
2023-03-15T19:54:13.871Z,78.25
2023-03-15T19:56:41.616Z,78.18
2023-03-15T19:59:08.577Z,76.77
2023-03-15T20:01:35.430Z,76.03
2023-03-15T20:04:02.101Z,75.23
2023-03-15T20:06:28.750Z,76.25
2023-03-15T20:08:55.358Z,75.79
2023-03-15T20:11:25.180Z,75.51
2023-03-15T20:13:59.782Z,76.31
2023-03-15T20:16:26.569Z,74.90
2023-03-15T20:18:55.269Z,74.36
2023-03-15T20:21:26.307Z,74.01
2023-03-15T20:23:53.067Z,72.69
2023-03-15T20:26:20.812Z,73.64
2023-03-15T20:28:47.346Z,72.97
2023-03-15T20:31:19.258Z,74.68
2023-03-15T20:33:48.838Z,74.16
2023-03-15T20:36:17.360Z,73.80
2023-03-15T20:38:48.063Z,74.55
2023-03-15T20:41:14.733Z,75.81
2023-03-15T20:43:42.031Z,76.39
2023-03-15T20:46:09.940Z,75.08
2023-03-15T20:48:36.963Z,75.65
2023-03-15T20:51:04.496Z,75.15
2023-03-15T20:53:33.161Z,75.06
2023-03-15T20:56:00.084Z,75.54
2023-03-15T20:58:26.851Z,75.03
2023-03-15T21:01:05.642Z,74.81
2023-03-15T21:03:34.038Z,75.11
2023-03-15T21:06:02.757Z,74.70
2023-03-15T21:08:29.403Z,74.38
2023-03-15T21:10:56.051Z,73.86
2023-03-15T21:13:22.945Z,74.97
2023-03-15T21:15:53.214Z,75.02
2023-03-15T21:18:21.994Z,75.58
2023-03-15T21:21:00.044Z,75.57
2023-03-15T21:23:42.765Z,75.56
2023-03-15T21:26:12.048Z,76.93
2023-03-15T21:28:39.252Z,77.30
2023-03-15T21:31:07.483Z,77.11
2023-03-15T21:33:34.482Z,76.92
2023-03-15T21:36:01.874Z,76.51
2023-03-15T21:38:31.456Z,77.00
2023-03-15T21:41:05.599Z,77.03
2023-03-15T21:43:33.165Z,76.34
2023-03-15T21:46:04.811Z,77.07
2023-03-15T21:48:32.396Z,77.05
2023-03-15T21:50:58.946Z,78.02
2023-03-15T21:53:25.525Z,77.12
2023-03-15T21:55:55.713Z,78.96
2023-03-15T21:58:22.273Z,79.17
2023-03-15T22:00:50.193Z,77.94
2023-03-15T22:03:19.574Z,78.49
2023-03-15T22:05:46.515Z,77.99
2023-03-15T22:08:13.087Z,78.59
2023-03-15T22:10:39.763Z,79.79
2023-03-15T22:13:06.318Z,80.56
2023-03-15T22:15:33.890Z,81.03
2023-03-15T22:18:02.278Z,80.50
2023-03-15T22:20:29.594Z,81.92
2023-03-15T22:22:56.286Z,83.39
2023-03-15T22:25:23.043Z,83.99
2023-03-15T22:27:49.649Z,83.29
2023-03-15T22:30:18.857Z,83.18
2023-03-15T22:32:45.878Z,83.88
2023-03-15T22:35:14.651Z,85.85
2023-03-15T22:37:41.664Z,84.80
2023-03-15T22:40:11.500Z,83.12
2023-03-15T22:42:37.934Z,82.31
2023-03-15T22:45:05.613Z,81.57
2023-03-15T22:47:32.199Z,82.03
2023-03-15T22:49:59.733Z,82.04
2023-03-15T22:52:27.328Z,80.57
2023-03-15T22:54:54.296Z,80.14
2023-03-15T22:57:20.966Z,80.08
2023-03-15T22:59:47.855Z,79.44
2023-03-15T23:02:14.523Z,79.40
2023-03-15T23:04:41.206Z,79.56
2023-03-15T23:07:07.944Z,79.91
2023-03-15T23:09:34.500Z,79.20
2023-03-15T23:12:01.079Z,80.05
2023-03-15T23:14:29.684Z,80.06
2023-03-15T23:16:56.227Z,80.46
2023-03-15T23:19:22.738Z,80.27
2023-03-15T23:21:49.364Z,79.66
2023-03-15T23:24:20.079Z,79.52
2023-03-15T23:26:46.631Z,80.29
2023-03-15T23:29:13.430Z,80.48
2023-03-15T23:31:42.005Z,80.33
2023-03-15T23:34:08.922Z,81.97
2023-03-15T23:36:35.915Z,81.41
2023-03-15T23:39:05.625Z,81.96
2023-03-15T23:41:32.854Z,81.65
2023-03-15T23:44:02.039Z,81.62
2023-03-15T23:46:28.624Z,81.07
2023-03-15T23:48:55.326Z,81.13
2023-03-15T23:51:22.317Z,81.34
2023-03-15T23:53:48.969Z,81.43
2023-03-15T23:56:15.546Z,81.94
2023-03-15T23:58:42.151Z,82.82
